Historyczne dane pomiarowe

Dodano dane terminowe – wersja testowa.

Dane z okresu 1951-2019

Wersja bazy: 1.34 [2019-03-16, lista zmian], aktualizacja planowana na 2019-04-15

Dane meteo z obszaru Polski uzyskane na podstawie danych udostępnionych przez Instytut Meteorologii i Gospodarki Wodnej – Państwowy Instytut Badawczy.

 

Wybierz Datę:    

       

TemperaturaWilgotnośćWiatrCiśnienieOpadyŚniegCzas trwania zjawisk
 Stacja t tx tn tng RH VA  wxwx mslp ppp RRR   cm mm wxwxwxwxwxwxwx
1998-01-17 3.6 5.7 1.9 -0.3 89.5- 5.3 3.3---- 3.2------------
1998-01-18 1.4 7.6 -3.4 -6.4 74.3- 1.3 1.7---- 0.0------------
1998-01-19 3.4 5.2 1.9 -1.6 68.3- 6.7 8.0---- 0.1------------
1998-01-20 2.4 7.0 -0.6 -0.6 83.8- 6.7 1.3---- 0.1------------
1998-01-21 0.6 2.0 -0.6 -3.2 96.3- 8.0 2.3---- 8.9------------
1998-01-22 0.0 1.5 -0.9 -1.7 94.5- 8.0 1.0---- 1.7-- 5---------
1998-01-23 -2.0 0.3 -3.6 -4.0 84.3- 8.0 1.7---- 0.0-- 5---------
1998-01-24 -2.8 -1.3 -4.1 -5.0 89.3- 8.0 0.0---- 0.0-- 5---------
1998-01-25 -4.8 -0.6 -7.8-12.1 84.8- 2.7 1.3---- 0.0-- 5---------
1998-01-26 -6.9 -2.5 -9.8-13.9 96.5- 5.3 1.3---- 0.0-- 5---------
1998-01-27 -8.7 -0.5-12.8-15.9 88.8- 0.0 0.0---- 0.0-- 5---------
1998-01-28 -5.9 0.0-11.9-15.7 91.0- 6.0 1.3---- 3.5-- 5---------
1998-01-29 -5.6 -0.2-10.2-16.8 88.3- 3.3 1.3---- 0.0-- 8---------
1998-01-30 -4.6 1.5-14.9-20.1 78.5- 6.3 4.0---- 1.8-- 8---------
1998-01-31 -6.6 2.0-13.0-16.1 80.8- 4.3 3.3---- 1.0-- 9---------
1998-02-01-12.9 -5.7-18.9-25.8 76.8- 0.3 1.0---- 0.0-- 11---------
1998-02-02 -9.7 -1.6-17.4-22.2 57.5- 2.7 1.0---- 0.0-- 11---------
1998-02-03 -5.8 -0.2-17.5-21.1 65.5- 3.3 5.3---- 0.2-- 11---------
1998-02-04 -2.0 5.2 -6.4-13.5 67.3- 2.3 0.7---- 0.0-- 11---------
1998-02-05 -5.9 5.0-11.8-17.1 71.5- 1.7 0.3---- 0.0-- 10---------
1998-02-06 0.1 5.5 -5.9-11.4 86.5- 7.7 1.3---- 0.0-- 10---------
1998-02-07 2.9 8.2 0.6 -3.1 78.5- 3.3 2.0---- 0.0-- 6---------
1998-02-08 1.7 3.8 0.1 -3.9 82.5- 6.0 3.3---- 0.0-- 4---------
1998-02-09 2.4 6.8 -1.0 -5.1 81.5- 7.0 0.0---- 0.0------------
1998-02-10 3.0 11.3 -0.7 -3.4 75.5- 3.0 0.3---- 0.0------------
1998-02-11 4.1 11.5 -1.4 -4.0 74.3- 2.0 0.7---- 0.0------------
1998-02-12 9.6 12.5 5.1 1.0 67.0- 8.0 5.0---- 0.4------------
1998-02-13 7.9 11.2 5.4 5.4 91.5- 8.0 4.7---- 12.2------------
1998-02-14 8.9 12.0 4.5 4.4 86.0- 7.3 2.7---- 0.8------------
1998-02-15 10.3 12.3 9.3 8.3 87.0- 8.0 4.7---- 1.5------------
152.1 ms

 

Źródłem pochodzenia danych jest Instytut Meteorologii i Gospodarki Wodnej – Państwowy Instytut Badawczy. Dane Instytutu Meteorologii i Gospodarki Wodnej – Państwowego Instytutu Badawczego zostały przetworzone.

Dane źródłowe można odnaleźć na stronie https://dane.imgw.pl